Time;durP1;ratioP1;P1;durP2;ratioP2;P2;SDS_P1;SDS_P2;PMS_P1;PMS_P2;Temp;Humidity;BMP_temperature;BMP_pressure;BME280_temperature;BME280_humidity;BME280_pressure;Samples;Min_cycle;Max_cycle;Signal;HPM_P1;HPM_P2
2023/03/12 00:01:26;;;;;;;8.57;4.78;;;;;;;;;;5030996;28;20416;-71
2023/03/12 00:03:55;;;;;;;9.80;3.95;;;1.10;99.90;;;;;;5014434;28;20052;-71
2023/03/12 00:06:21;;;;;;;9.80;4.47;;;;;;;;;;5030762;28;20060;-71
2023/03/12 00:08:48;;;;;;;15.00;5.30;;;;;;;;;;5030684;28;20511;-71
2023/03/12 00:11:15;;;;;;;8.05;4.38;;;;;;;;;;5030898;28;20064;-71
2023/03/12 00:13:42;;;;;;;11.48;4.90;;;;;;;;;;5030547;28;20042;-71
2023/03/12 00:16:12;;;;;;;10.60;4.00;;;;;;;;;;5030707;28;20042;-71
2023/03/12 00:18:38;;;;;;;7.88;4.25;;;;;;;;;;5014148;28;20527;-71
2023/03/12 00:21:04;;;;;;;11.27;4.60;;;;;;;;;;5030515;28;20046;-71
2023/03/12 00:23:30;;;;;;;7.15;4.63;;;;;;;;;;5030593;28;20049;-71
2023/03/12 00:26:05;;;;;;;10.48;4.60;;;1.30;99.90;;;;;;5014343;28;20045;-71
2023/03/12 00:28:31;;;;;;;8.88;4.65;;;;;;;;;;5030363;28;20080;-72
2023/03/12 00:30:57;;;;;;;6.28;3.92;;;;;;;;;;5030695;28;20480;-71
2023/03/12 00:33:24;;;;;;;7.70;4.40;;;1.10;99.90;;;;;;5030460;28;20469;-71
2023/03/12 00:35:51;;;;;;;12.93;4.97;;;1.20;99.90;;;;;;5030475;28;20041;-71
2023/03/12 00:38:16;;;;;;;6.82;4.40;;;1.30;99.90;;;;;;5030137;28;20045;-71
2023/03/12 00:40:42;;;;;;;7.78;4.03;;;1.20;99.90;;;;;;5030297;28;20390;-71
2023/03/12 00:43:08;;;;;;;6.95;3.95;;;1.20;99.90;;;;;;5013694;28;20390;-72
2023/03/12 00:45:34;;;;;;;6.55;4.10;;;;;;;;;;5014090;28;20044;-71
2023/03/12 00:48:00;;;;;;;6.25;4.10;;;;;;;;;;5013639;28;20037;-71
2023/03/12 00:50:26;;;;;;;5.80;3.80;;;;;;;;;;5030183;28;20039;-71
2023/03/12 00:52:52;;;;;;;6.95;4.32;;;;;;;;;;5029931;28;20072;-72
2023/03/12 00:55:18;;;;;;;4.45;3.50;;;;;;;;;;5013891;28;20048;-72
2023/03/12 00:57:44;;;;;;;6.55;3.95;;;;;;;;;;5030373;28;20042;-71
2023/03/12 01:00:11;;;;;;;8.30;4.75;;;1.10;99.90;;;;;;5046840;28;20046;-71
2023/03/12 01:02:38;;;;;;;5.55;3.60;;;;;;;;;;5030066;28;20564;-72
2023/03/12 01:05:06;;;;;;;10.77;4.38;;;1.10;99.90;;;;;;5030155;28;20038;-71
2023/03/12 01:07:32;;;;;;;6.10;3.83;;;;;;;;;;5029696;28;20124;-72
2023/03/12 01:09:58;;;;;;;6.63;3.92;;;1.20;99.90;;;;;;5030026;28;20045;-71
2023/03/12 01:12:23;;;;;;;9.13;3.80;;;1.20;99.90;;;;;;5029855;28;20034;-72
2023/03/12 01:14:49;;;;;;;7.22;4.05;;;;;;;;;;5030303;28;20044;-71
2023/03/12 01:17:15;;;;;;;9.95;4.40;;;;;;;;;;5029896;28;20137;-71
2023/03/12 01:19:41;;;;;;;11.60;5.45;;;;;;;;;;5029887;28;20077;-72
2023/03/12 01:22:07;;;;;;;7.03;3.60;;;;;;;;;;5029932;28;20100;-72
2023/03/12 01:24:33;;;;;;;9.63;4.68;;;;;;;;;;5030220;28;20052;-72
2023/03/12 01:26:59;;;;;;;5.32;3.58;;;;;;;;;;5013416;28;20049;-71
2023/03/12 01:29:25;;;;;;;5.90;3.65;;;;;;;;;;5030513;28;20598;-70
2023/03/12 01:31:51;;;;;;;7.47;4.25;;;;;;;;;;5029851;28;20034;-71
2023/03/12 01:34:17;;;;;;;6.03;3.75;;;;;;;;;;5029902;28;20072;-71
2023/03/12 01:36:45;;;;;;;7.10;3.30;;;;;;;;;;5029731;28;20080;-72
2023/03/12 01:39:11;;;;;;;13.88;3.90;;;;;;;;;;5029937;28;20038;-72
2023/03/12 01:41:37;;;;;;;8.05;4.25;;;;;;;;;;5013365;28;20037;-71
2023/03/12 01:44:03;;;;;;;8.20;3.75;;;1.50;99.90;;;;;;5029729;28;20056;-72
2023/03/12 01:46:44;;;;;;;7.53;3.53;;;1.50;99.90;;;;;;5029869;28;20048;-72
2023/03/12 01:49:28;;;;;;;5.55;3.42;;;1.60;99.90;;;;;;5013259;28;20033;-72
2023/03/12 01:52:03;;;;;;;8.00;4.07;;;;;;;;;;5029588;28;20041;-72
2023/03/12 01:54:36;;;;;;;6.18;3.70;;;1.80;99.90;;;;;;5029940;28;20041;-72
2023/03/12 01:57:05;;;;;;;8.23;4.20;;;1.80;99.90;;;;;;5031660;28;20060;-72
2023/03/12 01:59:44;;;;;;;5.10;3.85;;;1.70;99.90;;;;;;5033022;28;20116;-72
2023/03/12 02:02:10;;;;;;;7.68;4.47;;;;;;;;;;5033284;28;20187;-70
2023/03/12 02:04:37;;;;;;;6.10;3.72;;;;;;;;;;5033422;28;20045;-72
2023/03/12 02:07:05;;;;;;;9.57;3.65;;;;;;;;;;5032920;28;20080;-72
2023/03/12 02:09:33;;;;;;;9.75;4.10;;;1.80;99.90;;;;;;5033015;28;20047;-71
2023/03/12 02:12:00;;;;;;;9.30;4.47;;;;;;;;;;5032760;28;20338;-71
2023/03/12 02:14:26;;;;;;;6.30;4.32;;;;;;;;;;5033192;28;20097;-72
2023/03/12 02:16:53;;;;;;;6.50;3.70;;;1.90;99.90;;;;;;5032795;28;20033;-72
2023/03/12 02:19:25;;;;;;;8.73;4.00;;;;;;;;;;5033112;28;20041;-71
2023/03/12 02:21:51;;;;;;;10.02;4.28;;;1.90;99.90;;;;;;5032634;28;20485;-72
2023/03/12 02:24:43;;;;;;;7.90;4.72;;;1.80;99.90;;;;;;5032747;28;20038;-72
2023/03/12 02:27:09;;;;;;;8.98;4.85;;;;;;;;;;5032477;28;20045;-72
2023/03/12 02:29:36;;;;;;;6.78;5.07;;;;;;;;;;5016029;28;20505;-72
2023/03/12 02:32:03;;;;;;;9.25;5.22;;;;;;;;;;5032373;28;20041;-72
2023/03/12 02:34:29;;;;;;;7.85;4.72;;;;;;;;;;5032871;28;20049;-72
2023/03/12 02:36:55;;;;;;;10.82;5.45;;;;;;;;;;5032367;28;20080;-72
2023/03/12 02:39:21;;;;;;;7.95;5.60;;;;;;;;;;5032471;28;20077;-72
2023/03/12 02:41:56;;;;;;;10.20;7.38;;;2.10;99.90;;;;;;5032184;28;20041;-71
2023/03/12 02:44:28;;;;;;;8.43;6.00;;;;;;;;;;5016120;28;20103;-72
2023/03/12 02:46:56;;;;;;;9.57;5.70;;;2.00;99.90;;;;;;5033435;28;20417;-72
2023/03/12 02:49:23;;;;;;;12.32;5.80;;;;;;;;;;5032215;28;20037;-72
2023/03/12 02:51:49;;;;;;;10.55;5.38;;;;;;;;;;5015520;28;20103;-72
2023/03/12 02:54:16;;;;;;;9.85;6.35;;;;;;;;;;5032264;28;20037;-71
2023/03/12 02:56:42;;;;;;;8.13;5.28;;;;;;;;;;5032054;28;20076;-72
2023/03/12 02:59:08;;;;;;;9.02;5.53;;;2.10;99.90;;;;;;5015537;28;20045;-72
2023/03/12 03:01:35;;;;;;;6.32;4.15;;;;;;;;;;5031982;28;20519;-72
2023/03/12 03:04:01;;;;;;;9.32;3.75;;;;;;;;;;5031996;28;20060;-71
2023/03/12 03:06:28;;;;;;;6.70;4.07;;;;;;;;;;5031816;28;20175;-71
2023/03/12 03:08:54;;;;;;;7.75;3.83;;;2.00;99.90;;;;;;5031938;28;20042;-72
2023/03/12 03:11:23;;;;;;;6.50;3.70;;;1.90;99.90;;;;;;5033322;28;20056;-70
2023/03/12 03:13:49;;;;;;;8.05;3.80;;;;;;;;;;5033641;28;20049;-73
2023/03/12 03:16:15;;;;;;;7.38;4.03;;;;;;;;;;5032280;28;20095;-72
2023/03/12 03:18:41;;;;;;;8.38;4.15;;;;;;;;;;5015169;28;20045;-72
2023/03/12 03:21:09;;;;;;;7.43;3.83;;;2.20;99.90;;;;;;5031898;28;20049;-72
2023/03/12 03:23:35;;;;;;;6.43;4.05;;;;;;;;;;5031537;28;20043;-71
2023/03/12 03:26:01;;;;;;;6.88;3.55;;;;;;;;;;5015456;28;20128;-72
2023/03/12 03:28:29;;;;;;;7.30;3.65;;;2.10;99.90;;;;;;5031391;28;20037;-71
2023/03/12 03:30:59;;;;;;;4.93;3.63;;;2.10;99.90;;;;;;5015250;28;20037;-71
2023/03/12 03:33:25;;;;;;;5.55;4.13;;;;;;;;;;5031298;28;20037;-72
2023/03/12 03:35:51;;;;;;;6.47;3.47;;;;;;;;;;5031539;28;20049;-72
2023/03/12 03:38:17;;;;;;;6.25;3.58;;;;;;;;;;5014886;28;20091;-72
2023/03/12 03:40:43;;;;;;;7.30;3.30;;;;;;;;;;5031203;28;20520;-71
2023/03/12 03:43:09;;;;;;;10.63;4.43;;;2.20;99.90;;;;;;5031198;28;20076;-71
2023/03/12 03:45:34;;;;;;;8.55;3.40;;;;;;;;;;5031216;28;20492;-72
2023/03/12 03:48:00;;;;;;;7.80;4.38;;;2.40;99.90;;;;;;5014455;28;20041;-72
2023/03/12 03:50:26;;;;;;;6.97;3.92;;;;;;;;;;5031073;28;20033;-72
2023/03/12 03:52:52;;;;;;;11.43;4.35;;;;;;;;;;5030916;28;20512;-72
2023/03/12 03:55:18;;;;;;;8.10;4.00;;;;;;;;;;5031064;28;20501;-72
2023/03/12 03:57:44;;;;;;;5.13;3.22;;;2.30;99.90;;;;;;5030839;28;20037;-72
2023/03/12 04:00:11;;;;;;;8.30;3.72;;;2.50;99.90;;;;;;5014460;28;20052;-72
2023/03/12 04:02:38;;;;;;;9.77;4.60;;;;;;;;;;5030653;28;20049;-72
2023/03/12 04:05:04;;;;;;;6.00;3.35;;;2.40;99.90;;;;;;5030899;28;20037;-71
2023/03/12 04:07:30;;;;;;;6.35;4.10;;;2.50;99.90;;;;;;5030697;28;20172;-72
2023/03/12 04:09:57;;;;;;;9.65;3.80;;;;;;;;;;5030757;28;20034;-72
2023/03/12 04:12:24;;;;;;;8.52;3.65;;;;;;;;;;5030827;28;20049;-72
2023/03/12 04:14:51;;;;;;;5.80;3.45;;;2.50;99.90;;;;;;5014210;28;20037;-72
2023/03/12 04:17:17;;;;;;;7.90;4.45;;;;;;;;;;5030565;28;20049;-72
2023/03/12 04:19:43;;;;;;;9.90;4.05;;;;;;;;;;5030177;28;20042;-72
2023/03/12 04:22:09;;;;;;;8.98;3.70;;;2.60;99.90;;;;;;5013993;28;20463;-72
2023/03/12 04:24:35;;;;;;;7.05;3.38;;;2.50;99.90;;;;;;5031916;28;20041;-71
2023/03/12 04:27:01;;;;;;;8.57;3.90;;;;;;;;;;5030283;28;20068;-71
2023/03/12 04:29:27;;;;;;;6.78;3.65;;;2.40;99.90;;;;;;5030507;28;20045;-72
2023/03/12 04:31:53;;;;;;;6.72;3.50;;;;;;;;;;5030255;28;20043;-72
2023/03/12 04:34:19;;;;;;;5.95;3.50;;;;;;;;;;5014045;28;20038;-71
2023/03/12 04:36:45;;;;;;;6.38;3.28;;;2.30;99.90;;;;;;5030601;28;20519;-72
2023/03/12 04:39:12;;;;;;;6.85;4.32;;;2.30;99.90;;;;;;5030353;28;20041;-72
2023/03/12 04:41:37;;;;;;;7.95;4.03;;;2.50;99.90;;;;;;5030051;28;20527;-72
2023/03/12 04:44:04;;;;;;;8.77;4.05;;;2.40;99.90;;;;;;5030580;28;20033;-71
2023/03/12 04:46:31;;;;;;;6.40;3.70;;;2.30;99.90;;;;;;5013766;28;20128;-72
2023/03/12 04:48:57;;;;;;;8.70;4.00;;;;;;;;;;5030212;28;20038;-71
2023/03/12 04:51:23;;;;;;;5.68;3.38;;;;;;;;;;5013595;28;20037;-71
2023/03/12 04:53:50;;;;;;;6.28;3.90;;;;;;;;;;5030293;28;20059;-71
2023/03/12 04:56:15;;;;;;;8.38;4.13;;;2.30;99.90;;;;;;5030239;28;20543;-72
2023/03/12 04:58:41;;;;;;;7.47;3.80;;;;;;;;;;5029958;28;20073;-71
2023/03/12 05:01:12;;;;;;;5.82;3.85;;;;;;;;;;5030167;28;20052;-71
2023/03/12 05:03:38;;;;;;;8.73;3.85;;;;;;;;;;5029991;28;20064;-72
2023/03/12 05:06:04;;;;;;;6.72;3.78;;;;;;;;;;5013991;28;20042;-72
2023/03/12 05:08:30;;;;;;;8.57;3.97;;;;;;;;;;5029942;28;20060;-72
2023/03/12 05:10:56;;;;;;;12.00;3.83;;;;;;;;;;5030362;28;20429;-71
2023/03/12 05:13:22;;;;;;;8.40;3.97;;;;;;;;;;5029689;28;20099;-72
2023/03/12 05:15:49;;;;;;;6.97;3.40;;;;;;;;;;5013617;28;20413;-72
2023/03/12 05:18:15;;;;;;;13.48;4.30;;;;;;;;;;5029869;28;20056;-71
2023/03/12 05:20:41;;;;;;;5.47;4.05;;;;;;;;;;5029951;28;20091;-71
2023/03/12 05:23:08;;;;;;;6.18;3.70;;;;;;;;;;5013329;28;20045;-72
2023/03/12 05:25:37;;;;;;;7.95;4.45;;;;;;;;;;5030081;28;20041;-71
2023/03/12 05:28:03;;;;;;;5.90;3.75;;;;;;;;;;5013055;28;20095;-71
2023/03/12 05:30:29;;;;;;;9.43;3.55;;;;;;;;;;5030595;28;20076;-72
2023/03/12 05:32:55;;;;;;;5.55;3.38;;;;;;;;;;5017056;28;20132;-72
2023/03/12 05:35:22;;;;;;;9.75;3.53;;;2.50;99.90;;;;;;5033800;28;20038;-72
2023/03/12 05:37:48;;;;;;;3.75;3.20;;;;;;;;;;5033887;28;20053;-72
2023/03/12 05:40:14;;;;;;;8.02;3.97;;;;;;;;;;5017115;28;20041;-71
2023/03/12 05:42:40;;;;;;;6.03;4.00;;;;;;;;;;5033229;28;20049;-72
2023/03/12 05:45:06;;;;;;;5.85;3.70;;;2.60;99.90;;;;;;5033538;28;20128;-72
2023/03/12 05:47:32;;;;;;;7.68;3.58;;;;;;;;;;5034648;28;20033;-71
2023/03/12 05:49:58;;;;;;;7.55;3.83;;;;;;;;;;5016810;28;20053;-72
2023/03/12 05:52:24;;;;;;;7.47;4.05;;;;;;;;;;5033179;28;20087;-71
2023/03/12 05:54:51;;;;;;;9.18;4.00;;;2.50;99.90;;;;;;5033314;28;20452;-71
2023/03/12 05:57:17;;;;;;;5.78;3.90;;;;;;;;;;5017275;28;20481;-71
2023/03/12 05:59:43;;;;;;;7.72;3.78;;;2.50;99.90;;;;;;5033135;28;20076;-72
2023/03/12 06:02:09;;;;;;;8.30;3.70;;;;;;;;;;5016562;28;20037;-71
2023/03/12 06:04:35;;;;;;;7.70;3.97;;;;;;;;;;5033152;28;20050;-72
2023/03/12 06:07:01;;;;;;;10.63;4.38;;;;;;;;;;5032960;28;20037;-71
2023/03/12 06:09:27;;;;;;;7.25;3.53;;;;;;;;;;5032986;28;20048;-69
2023/03/12 06:11:53;;;;;;;7.03;3.97;;;;;;;;;;5032792;28;20501;-72
2023/03/12 06:14:18;;;;;;;9.77;4.13;;;2.60;99.90;;;;;;5016755;28;20084;-72
2023/03/12 06:16:44;;;;;;;6.00;3.95;;;2.60;99.90;;;;;;5033300;28;20497;-72
2023/03/12 06:19:12;;;;;;;6.88;4.43;;;2.60;99.90;;;;;;5032928;28;20513;-71
2023/03/12 06:21:38;;;;;;;7.05;3.80;;;2.50;99.90;;;;;;5032631;28;20049;-72
2023/03/12 06:24:04;;;;;;;9.35;4.63;;;;;;;;;;5016915;28;20409;-71
2023/03/12 06:26:30;;;;;;;11.00;4.38;;;2.60;99.90;;;;;;5016092;28;20104;-71
2023/03/12 06:28:56;;;;;;;9.85;4.85;;;;;;;;;;5032687;28;20472;-71
2023/03/12 06:31:23;;;;;;;6.43;4.20;;;;;;;;;;5016193;28;20045;-71
2023/03/12 06:33:49;;;;;;;6.80;3.92;;;;;;;;;;5032453;28;20048;-71
2023/03/12 06:36:15;;;;;;;7.88;3.90;;;;;;;;;;5032400;28;20038;-71
2023/03/12 06:38:41;;;;;;;8.98;3.80;;;;;;;;;;5015719;28;20091;-71
2023/03/12 06:41:15;;;;;;;7.07;3.88;;;;;;;;;;5015710;28;20131;-71
2023/03/12 06:43:41;;;;;;;7.07;3.80;;;;;;;;;;5032243;28;20064;-72
2023/03/12 06:46:09;;;;;;;9.50;4.95;;;;;;;;;;5032565;28;20631;-71
2023/03/12 06:48:35;;;;;;;7.95;4.78;;;;;;;;;;5032134;28;20414;-72
2023/03/12 06:51:04;;;;;;;7.20;4.30;;;;;;;;;;5032046;28;20044;-71
2023/03/12 06:53:31;;;;;;;7.97;4.57;;;2.50;99.90;;;;;;5031881;28;20473;-72
2023/03/12 06:55:57;;;;;;;10.05;4.75;;;;;;;;;;5015559;28;20038;-71
2023/03/12 06:58:23;;;;;;;12.73;4.75;;;;;;;;;;5032124;28;20532;-71
2023/03/12 07:00:49;;;;;;;7.13;4.15;;;;;;;;;;5015350;28;20042;-71
2023/03/12 07:03:15;;;;;;;7.97;4.68;;;2.60;99.90;;;;;;5015160;28;20124;-71
2023/03/12 07:05:43;;;;;;;8.93;5.00;;;;;;;;;;5031903;28;20121;-71
2023/03/12 07:08:09;;;;;;;9.45;4.30;;;;;;;;;;5031582;28;20136;-71
2023/03/12 07:10:36;;;;;;;12.35;4.72;;;;;;;;;;5015325;28;20127;-72
2023/03/12 07:13:02;;;;;;;6.00;3.85;;;;;;;;;;5031711;28;20034;-71
2023/03/12 07:15:27;;;;;;;12.82;5.38;;;2.50;99.90;;;;;;5031734;28;20128;-71
2023/03/12 07:17:53;;;;;;;8.00;4.65;;;;;;;;;;5031507;28;20037;-72
2023/03/12 07:20:19;;;;;;;8.15;4.57;;;;;;;;;;5015424;28;20052;-71
2023/03/12 07:22:45;;;;;;;9.73;5.60;;;;;;;;;;5014744;28;20469;-71
2023/03/12 07:25:11;;;;;;;8.05;4.55;;;2.40;99.90;;;;;;5031455;28;20041;-71
2023/03/12 07:27:37;;;;;;;9.90;5.82;;;;;;;;;;5031244;28;20125;-71
2023/03/12 07:30:03;;;;;;;8.45;5.30;;;2.30;99.90;;;;;;5031265;28;20037;-71
2023/03/12 07:32:29;;;;;;;7.95;5.32;;;;;;;;;;5031157;28;20481;-71
2023/03/12 07:34:55;;;;;;;7.60;5.45;;;;;;;;;;5031238;28;20045;-71
2023/03/12 07:37:21;;;;;;;9.82;5.47;;;;;;;;;;5014719;28;20052;-72
2023/03/12 07:39:51;;;;;;;8.95;5.35;;;;;;;;;;5031059;28;20100;-71
2023/03/12 07:42:17;;;;;;;11.52;5.30;;;;;;;;;;5014574;28;20055;-71
2023/03/12 07:44:43;;;;;;;7.88;5.15;;;;;;;;;;5031063;28;20412;-71
2023/03/12 07:47:09;;;;;;;9.02;5.82;;;;;;;;;;5030923;28;20048;-71
2023/03/12 07:49:35;;;;;;;9.07;5.95;;;;;;;;;;5014417;28;20041;-71
2023/03/12 07:52:00;;;;;;;11.00;5.78;;;2.50;99.90;;;;;;5030931;28;20049;-71
2023/03/12 07:54:29;;;;;;;9.98;6.25;;;;;;;;;;5030348;28;20497;-71
2023/03/12 07:56:55;;;;;;;9.88;6.03;;;2.60;99.90;;;;;;5030841;28;20080;-71
2023/03/12 07:59:22;;;;;;;10.32;6.65;;;;;;;;;;5032538;28;20034;-71
2023/03/12 08:01:48;;;;;;;8.88;6.40;;;;;;;;;;5030943;28;20228;-71
2023/03/12 08:04:15;;;;;;;8.82;6.28;;;;;;;;;;5030729;28;20489;-71
2023/03/12 08:06:43;;;;;;;9.43;6.50;;;;;;;;;;5030594;28;20523;-71
2023/03/12 08:09:09;;;;;;;13.45;6.80;;;;;;;;;;5031151;28;20049;-71
2023/03/12 08:11:36;;;;;;;9.27;6.82;;;;;;;;;;5030359;28;20116;-71
2023/03/12 08:14:02;;;;;;;13.25;7.00;;;;;;;;;;5014221;28;20073;-71
2023/03/12 08:16:28;;;;;;;12.35;6.43;;;;;;;;;;5030642;28;20417;-71
2023/03/12 08:18:54;;;;;;;13.90;7.45;;;;;;;;;;5030542;28;20049;-71
2023/03/12 08:21:20;;;;;;;16.52;7.47;;;;;;;;;;5030703;28;20045;-71
2023/03/12 08:23:46;;;;;;;9.05;7.10;;;2.60;99.90;;;;;;5030439;28;20094;-71
2023/03/12 08:26:12;;;;;;;11.10;6.88;;;2.80;99.90;;;;;;5030390;28;20120;-71
2023/03/12 08:28:38;;;;;;;12.35;7.03;;;;;;;;;;5030358;28;20097;-72
2023/03/12 08:31:04;;;;;;;13.38;7.18;;;;;;;;;;5013857;28;20407;-71
2023/03/12 08:33:30;;;;;;;14.77;7.70;;;;;;;;;;5030111;28;20212;-70
2023/03/12 08:35:56;;;;;;;10.93;6.85;;;;;;;;;;5030732;28;20095;-71
2023/03/12 08:38:22;;;;;;;12.18;8.32;;;;;;;;;;5030297;28;20041;-71
2023/03/12 08:40:55;;;;;;;13.50;7.05;;;;;;;;;;5030517;28;20409;-71
2023/03/12 08:43:21;;;;;;;;;;;2.90;99.90;;;;;;5014074;28;20048;-71
2023/03/12 08:45:52;;;;;;;11.45;7.07;;;;;;;;;;5046934;28;19920;-71
2023/03/12 08:48:18;;;;;;;11.75;7.40;;;;;;;;;;5029942;28;20042;-71
2023/03/12 08:50:43;;;;;;;17.90;7.32;;;2.90;99.90;;;;;;5030385;28;20042;-71
2023/03/12 08:53:09;;;;;;;14.20;8.15;;;;;;;;;;5030026;28;20520;-71
2023/03/12 08:55:35;;;;;;;12.65;8.00;;;3.10;99.90;;;;;;5030086;28;20116;-71
2023/03/12 08:58:01;;;;;;;10.38;7.20;;;;;;;;;;5030241;28;20473;-71
2023/03/12 09:00:28;;;;;;;14.75;7.85;;;;;;;;;;5030098;28;20052;-71
2023/03/12 09:02:57;;;;;;;13.65;8.35;;;;;;;;;;5029855;28;20053;-71
2023/03/12 09:05:23;;;;;;;9.82;7.85;;;;;;;;;;5031378;28;20386;-71
2023/03/12 09:07:49;;;;;;;13.68;7.28;;;;;;;;;;5033892;28;20045;-71
2023/03/12 09:10:16;;;;;;;13.70;7.53;;;;;;;;;;5034048;28;20124;-71
2023/03/12 09:12:43;;;;;;;12.55;7.45;;;;;;;;;;5034111;28;20413;-72
2023/03/12 09:15:09;;;;;;;11.13;6.95;;;;;;;;;;5017374;28;20077;-71
2023/03/12 09:17:35;;;;;;;12.25;7.88;;;3.20;99.90;;;;;;5034440;28;20049;-71
2023/03/12 09:20:05;;;;;;;10.95;7.38;;;;;;;;;;5034024;28;20045;-71
2023/03/12 09:22:31;;;;;;;12.88;7.60;;;;;;;;;;5033539;28;20607;-71
2023/03/12 09:24:57;;;;;;;10.23;7.35;;;3.20;99.90;;;;;;5017301;28;20081;-70
2023/03/12 09:27:23;;;;;;;10.93;7.25;;;3.00;99.90;;;;;;5033398;28;20139;-71
2023/03/12 09:29:50;;;;;;;9.95;7.20;;;;;;;;;;5033515;28;20054;-71
2023/03/12 09:32:16;;;;;;;9.48;7.45;;;;;;;;;;5033331;28;20116;-71
2023/03/12 09:34:42;;;;;;;11.40;6.93;;;;;;;;;;5033905;28;20133;-70
2023/03/12 09:37:08;;;;;;;9.32;7.70;;;;;;;;;;5033365;28;20045;-71
2023/03/12 09:39:34;;;;;;;10.48;7.57;;;;;;;;;;5017228;28;20048;-71
2023/03/12 09:42:01;;;;;;;12.25;7.32;;;;;;;;;;5016642;28;20394;-71
2023/03/12 09:44:34;;;;;;;11.60;7.40;;;;;;;;;;5034068;28;20048;-71
2023/03/12 09:47:07;;;;;;;9.82;7.82;;;3.30;99.90;;;;;;5033443;28;20041;-71
2023/03/12 09:49:43;;;;;;;10.80;7.32;;;;;;;;;;5033353;28;20077;-71
2023/03/12 09:52:21;;;;;;;10.63;7.40;;;;;;;;;;5016730;28;20080;-71
2023/03/12 09:54:54;;;;;;;13.63;8.35;;;;;;;;;;5034450;28;20041;-71
2023/03/12 09:57:23;;;;;;;13.13;7.68;;;3.40;99.90;;;;;;5033313;28;20041;-71
2023/03/12 09:59:51;;;;;;;14.05;8.27;;;;;;;;;;5016519;28;20041;-71
2023/03/12 10:02:35;;;;;;;12.77;8.15;;;;;;;;;;5032850;28;20515;-71
2023/03/12 10:05:06;;;;;;;10.43;7.05;;;;;;;;;;5033411;28;20378;-71
2023/03/12 10:07:32;;;;;;;10.70;7.88;;;;;;;;;;5033006;28;20049;-71
2023/03/12 10:10:06;;;;;;;9.18;7.70;;;3.70;99.90;;;;;;5032747;28;20484;-71
2023/03/12 10:12:40;;;;;;;;;;;3.80;99.90;;;;;;5016765;28;20033;-71
2023/03/12 10:15:12;;;;;;;9.63;7.68;;;;;;;;;;5050076;28;19967;-71
2023/03/12 10:17:38;;;;;;;15.50;8.75;;;;;;;;;;5032065;28;20132;-71
2023/03/12 10:20:25;;;;;;;14.63;7.68;;;3.80;99.90;;;;;;5032521;28;20497;-71
2023/03/12 10:22:56;;;;;;;12.85;8.02;;;;;;;;;;5032968;28;20138;-72
2023/03/12 10:25:27;;;;;;;11.32;7.93;;;;;;;;;;5016141;28;20124;-71
2023/03/12 10:27:55;;;;;;;13.32;8.45;;;;;;;;;;5032353;28;20049;-71
2023/03/12 10:30:24;;;;;;;15.48;8.32;;;;;;;;;;5032507;28;20060;-71
2023/03/12 10:32:56;;;;;;;12.00;8.48;;;4.20;99.90;;;;;;5032434;28;20137;-71
2023/03/12 10:35:24;;;;;;;13.00;8.43;;;4.10;99.90;;;;;;5033817;28;20258;-71
2023/03/12 10:37:52;;;;;;;10.98;8.50;;;4.00;99.90;;;;;;5032243;28;20500;-70
2023/03/12 10:40:20;;;;;;;15.48;9.40;;;;;;;;;;5016019;28;20140;-71
2023/03/12 10:42:46;;;;;;;13.57;8.93;;;;;;;;;;5032219;28;20041;-71
2023/03/12 10:45:37;;;;;;;13.55;9.15;;;4.30;99.90;;;;;;5032378;28;20045;-71
2023/03/12 10:48:05;;;;;;;15.30;9.82;;;;;;;;;;5031991;28;20497;-71
2023/03/12 10:50:34;;;;;;;23.75;10.35;;;4.60;99.90;;;;;;5032296;28;20092;-71
2023/03/12 10:53:12;;;;;;;15.20;10.10;;;;;;;;;;5031815;28;20084;-71
2023/03/12 10:55:39;;;;;;;20.23;11.05;;;;;;;;;;5032293;28;20037;-71
2023/03/12 10:58:05;;;;;;;14.43;10.65;;;;;;;;;;5015886;28;20049;-71
2023/03/12 11:00:32;;;;;;;18.95;11.63;;;;;;;;;;5032077;28;20048;-71
2023/03/12 11:03:19;;;;;;;18.13;10.80;;;4.70;99.90;;;;;;5031815;28;20504;-71
2023/03/12 11:05:49;;;;;;;17.27;11.70;;;;;;;;;;5032402;28;20462;-71
2023/03/12 11:08:23;;;;;;;17.42;11.90;;;4.80;99.90;;;;;;5031709;28;20052;-71
2023/03/12 11:10:48;;;;;;;;;;;;;;;;;;5032480;28;20045;-71
2023/03/12 11:13:31;;;;;;;14.95;10.48;;;;;;;;;;5031541;28;19923;-71
2023/03/12 11:16:01;;;;;;;17.20;10.93;;;;;;;;;;5032068;28;20077;-71
2023/03/12 11:18:51;;;;;;;16.77;11.05;;;;;;;;;;5031516;28;20045;-71
2023/03/12 11:21:18;;;;;;;22.15;11.88;;;;;;;;;;5021349;28;20419;-71
2023/03/12 11:23:47;;;;;;;16.17;11.43;;;;;;;;;;5031314;28;20073;-71
2023/03/12 11:26:13;;;;;;;18.67;12.73;;;;;;;;;;5032572;28;20099;-72
2023/03/12 11:29:00;;;;;;;21.00;12.77;;;;;;;;;;5047049;28;20042;-72
2023/03/12 11:31:28;;;;;;;19.65;12.75;;;;;;;;;;5048642;28;20073;-71
2023/03/12 11:33:59;;;;;;;18.95;13.00;;;;;;;;;;5031580;28;20052;-71
2023/03/12 11:36:38;;;;;;;21.65;12.93;;;5.50;99.90;;;;;;5031456;28;20041;-71
2023/03/12 11:39:25;;;;;;;21.60;14.00;;;;;;;;;;5031239;28;20075;-71
2023/03/12 11:41:57;;;;;;;19.15;14.05;;;;;;;;;;5031793;28;20053;-71
2023/03/12 11:44:27;;;;;;;23.55;15.50;;;;;;;;;;5031682;28;20131;-71
2023/03/12 11:47:10;;;;;;;20.23;13.15;;;5.20;99.90;;;;;;5030887;28;20508;-72
2023/03/12 11:49:57;;;;;;;21.55;14.43;;;;;;;;;;5031011;28;20041;-71
2023/03/12 11:52:46;;;;;;;25.08;15.20;;;;;;;;;;5030707;28;20045;-71
2023/03/12 11:55:16;;;;;;;22.30;15.15;;;;;;;;;;5021058;28;20056;-71
2023/03/12 11:57:42;;;;;;;21.60;14.73;;;6.00;99.90;;;;;;5030799;28;20110;-71
2023/03/12 12:00:19;;;;;;;23.08;15.13;;;5.90;99.90;;;;;;5030838;28;20459;-71
2023/03/12 12:03:06;;;;;;;25.48;14.40;;;6.10;99.90;;;;;;5014187;28;20041;-73
2023/03/12 12:05:32;;;;;;;22.92;14.82;;;;;;;;;;5031089;28;20049;-71
2023/03/12 12:07:58;;;;;;;25.20;15.73;;;;;;;;;;5030394;28;20049;-71
2023/03/12 12:10:30;;;;;;;29.90;17.67;;;6.50;99.90;;;;;;5030674;28;20505;-71
2023/03/12 12:13:14;;;;;;;30.25;17.00;;;;;;;;;;5030456;28;20038;-71
2023/03/12 12:16:09;;;;;;;35.13;17.27;;;;;;;;;;5014565;28;20041;-72
2023/03/12 12:18:38;;;;;;;25.63;15.63;;;;;;;;;;5030343;28;20107;-71
2023/03/12 12:21:27;;;;;;;30.42;17.15;;;;;;;;;;5030775;28;20408;-71
2023/03/12 12:24:05;;;;;;;31.80;17.83;;;;;;;;;;5030357;28;20132;-71
2023/03/12 12:26:49;;;;;;;40.33;17.00;;;;;;;;;;5030217;28;20473;-72
2023/03/12 12:29:27;;;;;;;33.70;16.55;;;;;;;;;;5030205;28;20041;-71
2023/03/12 12:31:57;;;;;;;39.53;16.92;;;;;;;;;;5030387;28;20513;-71
2023/03/12 12:34:45;;;;;;;42.13;18.30;;;;;;;;;;5030228;28;20047;-71
2023/03/12 12:37:49;;;;;;;37.75;17.42;;;7.60;99.90;;;;;;5013831;28;20417;-71
2023/03/12 12:40:20;;;;;;;45.55;17.10;;;;;;;;;;5031210;28;20041;-71
2023/03/12 12:42:51;;;;;;;40.42;15.90;;;;;;;;;;5013893;28;20076;-71
2023/03/12 12:45:18;;;;;;;37.05;14.65;;;;;;;;;;5013910;28;20037;-72
2023/03/12 12:47:50;;;;;;;37.60;13.82;;;;;;;;;;5029877;28;20042;-71
2023/03/12 12:50:21;;;;;;;40.33;13.05;;;;;;;;;;5030047;28;20038;-72
2023/03/12 12:53:14;;;;;;;38.80;13.25;;;8.30;99.90;;;;;;5029969;28;20060;-72
2023/03/12 12:55:50;;;;;;;46.78;11.70;;;8.40;99.90;;;;;;5029958;28;20030;-71
2023/03/12 12:58:32;;;;;;;40.42;12.20;;;;;;;;;;5030050;28;20077;-72
2023/03/12 13:01:00;;;;;;;39.28;10.32;;;;;;;;;;5030183;28;20053;-71
2023/03/12 13:03:27;;;;;;;43.67;11.13;;;8.80;99.90;;;;;;5013429;28;20041;-72
2023/03/12 13:05:53;;;;;;;34.60;9.48;;;;;;;;;;5029924;28;20045;-73
2023/03/12 13:08:55;;;;;;;43.75;11.23;;;9.10;99.90;;;;;;5029771;28;20071;-71
2023/03/12 13:11:26;;;;;;;52.22;10.00;;;;;;;;;;5013331;28;20041;-72
2023/03/12 13:14:12;;;;;;;40.13;9.68;;;;;;;;;;5013537;28;20038;-71
2023/03/12 13:16:46;;;;;;;32.97;7.70;;;9.10;99.90;;;;;;5029900;28;20414;-72
2023/03/12 13:19:11;;;;;;;;;;;;;;;;;;5030401;28;20056;-71
2023/03/12 13:22:10;;;;;;;36.67;7.28;;;8.90;99.90;;;;;;5029563;28;20312;-71
2023/03/12 13:24:43;;;;;;;30.30;8.43;;;;;;;;;;5030181;28;20048;-72
2023/03/12 13:27:29;;;;;;;32.33;8.17;;;9.10;99.90;;;;;;5029958;28;20045;-72
2023/03/12 13:29:56;;;;;;;31.73;7.95;;;9.20;99.90;;;;;;5029826;28;20079;-72
2023/03/12 13:32:33;;;;;;;29.85;6.85;;;9.50;99.90;;;;;;5029747;28;20041;-72
2023/03/12 13:35:25;;;;;;;33.08;7.20;;;9.20;99.90;;;;;;5029855;28;20120;-72
2023/03/12 13:37:51;;;;;;;31.52;7.10;;;;;;;;;;5035498;28;20570;-71
2023/03/12 13:40:29;;;;;;;30.63;7.05;;;9.40;99.90;;;;;;5029931;28;20053;-72
2023/03/12 13:43:12;;;;;;;35.10;7.65;;;9.20;99.90;;;;;;5029557;28;20037;-73
2023/03/12 13:45:55;;;;;;;30.27;6.50;;;9.20;99.90;;;;;;5029911;28;20382;-71
2023/03/12 13:48:22;;;;;;;31.15;8.18;;;9.40;99.90;;;;;;5013172;28;20045;-72
2023/03/12 13:50:55;;;;;;;33.53;8.23;;;9.40;99.90;;;;;;5029779;28;20412;-72
2023/03/12 13:53:34;;;;;;;34.42;7.78;;;9.50;99.90;;;;;;5015541;28;20087;-73
2023/03/12 13:56:08;;;;;;;45.35;8.02;;;9.60;99.90;;;;;;5016811;28;20091;-72
2023/03/12 13:58:48;;;;;;;33.30;7.10;;;9.40;99.90;;;;;;5033059;28;20053;-71
2023/03/12 14:01:17;;;;;;;40.85;6.70;;;9.60;99.90;;;;;;5033039;28;20053;-72
2023/03/12 14:03:51;;;;;;;30.70;7.10;;;9.60;99.90;;;;;;5016540;28;20037;-72
2023/03/12 14:06:18;;;;;;;;;;;9.90;99.90;;;;;;5033562;28;20049;-71
2023/03/12 14:09:14;;;;;;;32.45;7.90;;;9.80;99.90;;;;;;5049387;28;19921;-72
2023/03/12 14:11:40;;;;;;;38.85;7.40;;;;;;;;;;5032852;28;20041;-72